sensor_id;sensor_type;location;lat;lon;timestamp;temperature;humidity
69189;DHT22;56302;52.322;5.926;2024-02-26T00:01:53;4.10;95.50
69189;DHT22;56302;52.322;5.926;2024-02-26T00:04:19;4.10;95.50
69189;DHT22;56302;52.322;5.926;2024-02-26T00:06:45;4.10;95.40
69189;DHT22;56302;52.322;5.926;2024-02-26T00:09:10;4.10;95.40
69189;DHT22;56302;52.322;5.926;2024-02-26T00:11:36;4.10;95.40
69189;DHT22;56302;52.322;5.926;2024-02-26T00:14:03;4.10;95.40
69189;DHT22;56302;52.322;5.926;2024-02-26T00:16:28;4.10;95.60
69189;DHT22;56302;52.322;5.926;2024-02-26T00:18:54;4.10;95.40
69189;DHT22;56302;52.322;5.926;2024-02-26T00:21:20;4.10;95.50
69189;DHT22;56302;52.322;5.926;2024-02-26T00:23:45;4.10;95.50
69189;DHT22;56302;52.322;5.926;2024-02-26T00:26:11;4.10;95.50
69189;DHT22;56302;52.322;5.926;2024-02-26T00:28:37;4.10;95.60
69189;DHT22;56302;52.322;5.926;2024-02-26T00:31:02;4.10;95.60
69189;DHT22;56302;52.322;5.926;2024-02-26T00:33:28;4.10;95.70
69189;DHT22;56302;52.322;5.926;2024-02-26T00:35:54;4.00;95.70
69189;DHT22;56302;52.322;5.926;2024-02-26T00:38:19;4.00;95.70
69189;DHT22;56302;52.322;5.926;2024-02-26T00:40:46;4.00;95.70
69189;DHT22;56302;52.322;5.926;2024-02-26T00:43:11;4.00;95.80
69189;DHT22;56302;52.322;5.926;2024-02-26T00:45:37;4.00;95.90
69189;DHT22;56302;52.322;5.926;2024-02-26T00:48:02;3.90;95.90
69189;DHT22;56302;52.322;5.926;2024-02-26T00:50:31;3.90;96.00
69189;DHT22;56302;52.322;5.926;2024-02-26T00:52:57;3.90;96.10
69189;DHT22;56302;52.322;5.926;2024-02-26T00:55:23;3.90;96.10
69189;DHT22;56302;52.322;5.926;2024-02-26T00:57:49;3.90;96.20
69189;DHT22;56302;52.322;5.926;2024-02-26T01:00:15;3.80;96.20
69189;DHT22;56302;52.322;5.926;2024-02-26T01:02:41;3.80;96.30
69189;DHT22;56302;52.322;5.926;2024-02-26T01:05:12;3.80;96.30
69189;DHT22;56302;52.322;5.926;2024-02-26T01:07:38;3.70;96.40
69189;DHT22;56302;52.322;5.926;2024-02-26T01:10:05;3.70;96.50
69189;DHT22;56302;52.322;5.926;2024-02-26T01:12:32;3.70;96.60
69189;DHT22;56302;52.322;5.926;2024-02-26T01:14:58;3.70;96.60
69189;DHT22;56302;52.322;5.926;2024-02-26T01:17:23;3.70;96.60
69189;DHT22;56302;52.322;5.926;2024-02-26T01:19:49;3.70;96.70
69189;DHT22;56302;52.322;5.926;2024-02-26T01:22:15;3.60;96.80
69189;DHT22;56302;52.322;5.926;2024-02-26T01:24:40;3.60;96.90
69189;DHT22;56302;52.322;5.926;2024-02-26T01:27:06;3.60;97.00
69189;DHT22;56302;52.322;5.926;2024-02-26T01:29:33;3.60;97.00
69189;DHT22;56302;52.322;5.926;2024-02-26T01:31:58;3.60;97.10
69189;DHT22;56302;52.322;5.926;2024-02-26T01:34:24;3.50;97.20
69189;DHT22;56302;52.322;5.926;2024-02-26T01:36:50;3.50;97.30
69189;DHT22;56302;52.322;5.926;2024-02-26T01:39:15;3.50;97.40
69189;DHT22;56302;52.322;5.926;2024-02-26T01:41:41;3.50;97.60
69189;DHT22;56302;52.322;5.926;2024-02-26T01:44:07;3.50;97.70
69189;DHT22;56302;52.322;5.926;2024-02-26T01:46:34;3.50;97.70
69189;DHT22;56302;52.322;5.926;2024-02-26T01:49:01;3.50;97.60
69189;DHT22;56302;52.322;5.926;2024-02-26T01:51:27;3.50;97.70
69189;DHT22;56302;52.322;5.926;2024-02-26T01:53:54;3.50;97.80
69189;DHT22;56302;52.322;5.926;2024-02-26T01:56:20;3.50;97.90
69189;DHT22;56302;52.322;5.926;2024-02-26T01:58:46;3.40;97.80
69189;DHT22;56302;52.322;5.926;2024-02-26T02:01:15;3.40;98.00
69189;DHT22;56302;52.322;5.926;2024-02-26T02:03:42;3.50;98.00
69189;DHT22;56302;52.322;5.926;2024-02-26T02:06:08;3.50;98.00
69189;DHT22;56302;52.322;5.926;2024-02-26T02:08:34;3.50;97.90
69189;DHT22;56302;52.322;5.926;2024-02-26T02:11:00;3.50;98.00
69189;DHT22;56302;52.322;5.926;2024-02-26T02:13:26;3.50;98.00
69189;DHT22;56302;52.322;5.926;2024-02-26T02:15:52;3.50;97.90
69189;DHT22;56302;52.322;5.926;2024-02-26T02:18:19;3.50;97.90
69189;DHT22;56302;52.322;5.926;2024-02-26T02:20:44;3.50;97.90
69189;DHT22;56302;52.322;5.926;2024-02-26T02:23:10;3.50;97.80
69189;DHT22;56302;52.322;5.926;2024-02-26T02:25:35;3.50;97.80
69189;DHT22;56302;52.322;5.926;2024-02-26T02:28:01;3.50;97.80
69189;DHT22;56302;52.322;5.926;2024-02-26T02:30:29;3.50;97.80
69189;DHT22;56302;52.322;5.926;2024-02-26T02:32:57;3.50;97.80
69189;DHT22;56302;52.322;5.926;2024-02-26T02:35:24;3.50;97.80
69189;DHT22;56302;52.322;5.926;2024-02-26T02:37:54;3.50;97.70
69189;DHT22;56302;52.322;5.926;2024-02-26T02:40:20;3.60;97.50
69189;DHT22;56302;52.322;5.926;2024-02-26T02:42:45;3.60;97.40
69189;DHT22;56302;52.322;5.926;2024-02-26T02:45:11;3.60;97.30
69189;DHT22;56302;52.322;5.926;2024-02-26T02:47:37;3.60;97.30
69189;DHT22;56302;52.322;5.926;2024-02-26T02:50:05;3.60;97.10
69189;DHT22;56302;52.322;5.926;2024-02-26T02:52:31;3.60;97.10
69189;DHT22;56302;52.322;5.926;2024-02-26T02:54:57;3.60;97.00
69189;DHT22;56302;52.322;5.926;2024-02-26T02:57:23;3.60;97.00
69189;DHT22;56302;52.322;5.926;2024-02-26T02:59:49;3.60;96.90
69189;DHT22;56302;52.322;5.926;2024-02-26T03:02:14;3.60;96.90
69189;DHT22;56302;52.322;5.926;2024-02-26T03:04:40;3.60;96.80
69189;DHT22;56302;52.322;5.926;2024-02-26T03:07:05;3.60;96.70
69189;DHT22;56302;52.322;5.926;2024-02-26T03:09:31;3.60;96.60
69189;DHT22;56302;52.322;5.926;2024-02-26T03:11:57;3.70;96.50
69189;DHT22;56302;52.322;5.926;2024-02-26T03:14:23;3.70;96.50
69189;DHT22;56302;52.322;5.926;2024-02-26T03:16:49;3.70;96.40
69189;DHT22;56302;52.322;5.926;2024-02-26T03:19:15;3.70;96.30
69189;DHT22;56302;52.322;5.926;2024-02-26T03:21:42;3.70;96.20
69189;DHT22;56302;52.322;5.926;2024-02-26T03:24:07;3.70;96.30
69189;DHT22;56302;52.322;5.926;2024-02-26T03:26:37;3.70;96.30
69189;DHT22;56302;52.322;5.926;2024-02-26T03:29:03;3.70;96.50
69189;DHT22;56302;52.322;5.926;2024-02-26T03:31:29;3.70;96.60
69189;DHT22;56302;52.322;5.926;2024-02-26T03:33:54;3.70;96.70
69189;DHT22;56302;52.322;5.926;2024-02-26T03:36:20;3.70;96.80
69189;DHT22;56302;52.322;5.926;2024-02-26T03:38:47;3.70;96.90
69189;DHT22;56302;52.322;5.926;2024-02-26T03:41:13;3.70;96.90
69189;DHT22;56302;52.322;5.926;2024-02-26T03:43:39;3.70;97.00
69189;DHT22;56302;52.322;5.926;2024-02-26T03:46:08;3.70;97.00
69189;DHT22;56302;52.322;5.926;2024-02-26T03:48:34;3.70;97.00
69189;DHT22;56302;52.322;5.926;2024-02-26T03:51:00;3.70;97.10
69189;DHT22;56302;52.322;5.926;2024-02-26T03:53:26;3.70;97.10
69189;DHT22;56302;52.322;5.926;2024-02-26T03:55:51;3.70;97.10
69189;DHT22;56302;52.322;5.926;2024-02-26T03:58:18;3.70;97.00
69189;DHT22;56302;52.322;5.926;2024-02-26T04:00:43;3.70;97.10
69189;DHT22;56302;52.322;5.926;2024-02-26T04:03:09;3.70;97.20
69189;DHT22;56302;52.322;5.926;2024-02-26T04:05:35;3.70;97.10
69189;DHT22;56302;52.322;5.926;2024-02-26T04:08:01;3.70;97.10
69189;DHT22;56302;52.322;5.926;2024-02-26T04:10:26;3.70;97.10
69189;DHT22;56302;52.322;5.926;2024-02-26T04:12:52;3.70;97.10
69189;DHT22;56302;52.322;5.926;2024-02-26T04:15:17;3.70;97.20
69189;DHT22;56302;52.322;5.926;2024-02-26T04:17:43;3.70;97.20
69189;DHT22;56302;52.322;5.926;2024-02-26T04:20:14;3.80;97.20
69189;DHT22;56302;52.322;5.926;2024-02-26T04:22:40;3.80;97.20
69189;DHT22;56302;52.322;5.926;2024-02-26T04:25:05;3.80;97.10
69189;DHT22;56302;52.322;5.926;2024-02-26T04:27:31;3.80;97.10
69189;DHT22;56302;52.322;5.926;2024-02-26T04:29:56;3.80;97.20
69189;DHT22;56302;52.322;5.926;2024-02-26T04:32:22;3.80;97.20
69189;DHT22;56302;52.322;5.926;2024-02-26T04:34:48;3.80;97.20
69189;DHT22;56302;52.322;5.926;2024-02-26T04:37:13;3.80;97.20
69189;DHT22;56302;52.322;5.926;2024-02-26T04:39:39;3.80;97.20
69189;DHT22;56302;52.322;5.926;2024-02-26T04:42:04;3.80;97.20
69189;DHT22;56302;52.322;5.926;2024-02-26T04:44:30;3.80;97.10
69189;DHT22;56302;52.322;5.926;2024-02-26T04:46:56;3.80;97.00
69189;DHT22;56302;52.322;5.926;2024-02-26T04:49:22;3.80;97.00
69189;DHT22;56302;52.322;5.926;2024-02-26T04:51:47;3.80;97.00
69189;DHT22;56302;52.322;5.926;2024-02-26T04:54:13;3.80;97.00
69189;DHT22;56302;52.322;5.926;2024-02-26T04:56:39;3.80;97.10
69189;DHT22;56302;52.322;5.926;2024-02-26T04:59:05;3.80;97.10
69189;DHT22;56302;52.322;5.926;2024-02-26T05:01:30;3.80;97.10
69189;DHT22;56302;52.322;5.926;2024-02-26T05:03:56;3.80;97.20
69189;DHT22;56302;52.322;5.926;2024-02-26T05:06:21;3.80;97.20
69189;DHT22;56302;52.322;5.926;2024-02-26T05:08:47;3.80;97.20
69189;DHT22;56302;52.322;5.926;2024-02-26T05:11:13;3.80;97.10
69189;DHT22;56302;52.322;5.926;2024-02-26T05:13:38;3.90;97.10
69189;DHT22;56302;52.322;5.926;2024-02-26T05:16:04;3.80;97.00
69189;DHT22;56302;52.322;5.926;2024-02-26T05:18:30;3.90;97.00
69189;DHT22;56302;52.322;5.926;2024-02-26T05:20:56;3.90;97.00
69189;DHT22;56302;52.322;5.926;2024-02-26T05:23:22;3.90;97.00
69189;DHT22;56302;52.322;5.926;2024-02-26T05:25:48;3.90;96.90
69189;DHT22;56302;52.322;5.926;2024-02-26T05:28:14;3.90;96.90
69189;DHT22;56302;52.322;5.926;2024-02-26T05:30:42;3.90;96.70
69189;DHT22;56302;52.322;5.926;2024-02-26T05:33:07;3.90;96.70
69189;DHT22;56302;52.322;5.926;2024-02-26T05:35:33;3.90;96.70
69189;DHT22;56302;52.322;5.926;2024-02-26T05:37:59;4.00;96.80
69189;DHT22;56302;52.322;5.926;2024-02-26T05:40:24;3.90;96.80
69189;DHT22;56302;52.322;5.926;2024-02-26T05:42:50;4.00;96.80
69189;DHT22;56302;52.322;5.926;2024-02-26T05:45:15;3.90;96.90
69189;DHT22;56302;52.322;5.926;2024-02-26T05:47:42;3.90;96.90
69189;DHT22;56302;52.322;5.926;2024-02-26T05:50:10;4.00;96.90
69189;DHT22;56302;52.322;5.926;2024-02-26T05:52:40;4.00;96.80
69189;DHT22;56302;52.322;5.926;2024-02-26T05:55:06;4.00;96.80
69189;DHT22;56302;52.322;5.926;2024-02-26T05:57:33;4.00;96.80
69189;DHT22;56302;52.322;5.926;2024-02-26T05:59:59;4.00;96.70
69189;DHT22;56302;52.322;5.926;2024-02-26T06:02:31;4.00;96.80
69189;DHT22;56302;52.322;5.926;2024-02-26T06:04:57;4.00;96.80
69189;DHT22;56302;52.322;5.926;2024-02-26T06:07:23;4.00;96.60
69189;DHT22;56302;52.322;5.926;2024-02-26T06:09:49;4.00;96.70
69189;DHT22;56302;52.322;5.926;2024-02-26T06:12:14;4.00;96.60
69189;DHT22;56302;52.322;5.926;2024-02-26T06:14:41;4.00;96.60
69189;DHT22;56302;52.322;5.926;2024-02-26T06:17:07;4.00;96.50
69189;DHT22;56302;52.322;5.926;2024-02-26T06:19:33;4.00;96.60
69189;DHT22;56302;52.322;5.926;2024-02-26T06:21:58;4.00;96.70
69189;DHT22;56302;52.322;5.926;2024-02-26T06:24:24;4.00;96.70
69189;DHT22;56302;52.322;5.926;2024-02-26T06:26:49;4.00;96.70
69189;DHT22;56302;52.322;5.926;2024-02-26T06:29:15;4.00;96.80
69189;DHT22;56302;52.322;5.926;2024-02-26T06:31:41;4.00;96.80
69189;DHT22;56302;52.322;5.926;2024-02-26T06:34:06;4.00;96.90
69189;DHT22;56302;52.322;5.926;2024-02-26T06:36:32;4.00;96.90
69189;DHT22;56302;52.322;5.926;2024-02-26T06:38:58;4.00;96.90
69189;DHT22;56302;52.322;5.926;2024-02-26T06:41:24;4.10;96.90
69189;DHT22;56302;52.322;5.926;2024-02-26T06:43:55;4.10;96.90
69189;DHT22;56302;52.322;5.926;2024-02-26T06:46:21;4.10;97.00
69189;DHT22;56302;52.322;5.926;2024-02-26T06:48:48;4.10;97.10
69189;DHT22;56302;52.322;5.926;2024-02-26T06:51:14;4.10;97.10
69189;DHT22;56302;52.322;5.926;2024-02-26T06:53:39;4.10;97.20
69189;DHT22;56302;52.322;5.926;2024-02-26T06:56:05;4.00;97.30
69189;DHT22;56302;52.322;5.926;2024-02-26T06:58:31;4.10;97.50
69189;DHT22;56302;52.322;5.926;2024-02-26T07:00:56;4.10;97.50
69189;DHT22;56302;52.322;5.926;2024-02-26T07:03:22;4.10;97.60
69189;DHT22;56302;52.322;5.926;2024-02-26T07:05:51;4.00;97.60
69189;DHT22;56302;52.322;5.926;2024-02-26T07:08:17;4.10;97.70
69189;DHT22;56302;52.322;5.926;2024-02-26T07:10:43;4.10;97.70
69189;DHT22;56302;52.322;5.926;2024-02-26T07:13:08;4.10;97.80
69189;DHT22;56302;52.322;5.926;2024-02-26T07:15:34;4.10;97.70
69189;DHT22;56302;52.322;5.926;2024-02-26T07:18:00;4.10;97.70
69189;DHT22;56302;52.322;5.926;2024-02-26T07:20:29;4.10;97.70
69189;DHT22;56302;52.322;5.926;2024-02-26T07:22:55;4.10;97.60
69189;DHT22;56302;52.322;5.926;2024-02-26T07:25:21;4.20;97.50
69189;DHT22;56302;52.322;5.926;2024-02-26T07:27:47;4.20;97.60
69189;DHT22;56302;52.322;5.926;2024-02-26T07:30:12;4.20;97.60
69189;DHT22;56302;52.322;5.926;2024-02-26T07:32:38;4.20;97.60
69189;DHT22;56302;52.322;5.926;2024-02-26T07:35:04;4.20;97.50
69189;DHT22;56302;52.322;5.926;2024-02-26T07:37:30;4.20;97.50
69189;DHT22;56302;52.322;5.926;2024-02-26T07:39:56;4.20;97.40
69189;DHT22;56302;52.322;5.926;2024-02-26T07:42:22;4.20;97.40
69189;DHT22;56302;52.322;5.926;2024-02-26T07:44:49;4.20;97.40
69189;DHT22;56302;52.322;5.926;2024-02-26T07:47:14;4.20;97.20
69189;DHT22;56302;52.322;5.926;2024-02-26T07:49:40;4.20;97.20
69189;DHT22;56302;52.322;5.926;2024-02-26T07:52:06;4.20;97.10
69189;DHT22;56302;52.322;5.926;2024-02-26T07:54:32;4.20;97.00
69189;DHT22;56302;52.322;5.926;2024-02-26T07:56:57;4.10;97.00
69189;DHT22;56302;52.322;5.926;2024-02-26T07:59:23;4.10;97.00
69189;DHT22;56302;52.322;5.926;2024-02-26T08:01:50;4.10;96.90
69189;DHT22;56302;52.322;5.926;2024-02-26T08:04:16;4.10;96.90
69189;DHT22;56302;52.322;5.926;2024-02-26T08:06:42;4.10;97.00
69189;DHT22;56302;52.322;5.926;2024-02-26T08:09:08;4.10;96.90
69189;DHT22;56302;52.322;5.926;2024-02-26T08:11:34;4.10;96.90
69189;DHT22;56302;52.322;5.926;2024-02-26T08:14:00;4.10;96.80
69189;DHT22;56302;52.322;5.926;2024-02-26T08:16:26;4.10;96.80
69189;DHT22;56302;52.322;5.926;2024-02-26T08:18:51;4.10;96.90
69189;DHT22;56302;52.322;5.926;2024-02-26T08:21:17;4.10;96.70
69189;DHT22;56302;52.322;5.926;2024-02-26T08:23:45;4.10;96.80
69189;DHT22;56302;52.322;5.926;2024-02-26T08:26:11;4.20;96.90
69189;DHT22;56302;52.322;5.926;2024-02-26T08:28:37;4.20;97.00
69189;DHT22;56302;52.322;5.926;2024-02-26T08:31:03;4.20;96.80
69189;DHT22;56302;52.322;5.926;2024-02-26T08:33:30;4.20;96.80
69189;DHT22;56302;52.322;5.926;2024-02-26T08:35:56;4.20;96.70
69189;DHT22;56302;52.322;5.926;2024-02-26T08:38:22;4.20;96.60
69189;DHT22;56302;52.322;5.926;2024-02-26T08:40:48;4.20;96.70
69189;DHT22;56302;52.322;5.926;2024-02-26T08:43:14;4.20;96.70
69189;DHT22;56302;52.322;5.926;2024-02-26T08:45:39;4.20;96.60
69189;DHT22;56302;52.322;5.926;2024-02-26T08:48:05;4.30;96.70
69189;DHT22;56302;52.322;5.926;2024-02-26T08:50:31;4.20;96.70
69189;DHT22;56302;52.322;5.926;2024-02-26T08:52:57;4.20;96.70
69189;DHT22;56302;52.322;5.926;2024-02-26T08:55:22;4.30;96.50
69189;DHT22;56302;52.322;5.926;2024-02-26T08:57:48;4.30;96.60
69189;DHT22;56302;52.322;5.926;2024-02-26T09:00:14;4.30;96.60
69189;DHT22;56302;52.322;5.926;2024-02-26T09:02:41;4.30;96.50
69189;DHT22;56302;52.322;5.926;2024-02-26T09:05:09;4.30;96.60
69189;DHT22;56302;52.322;5.926;2024-02-26T09:07:35;4.30;96.50
69189;DHT22;56302;52.322;5.926;2024-02-26T09:10:02;4.30;96.40
69189;DHT22;56302;52.322;5.926;2024-02-26T09:12:27;4.30;96.50
69189;DHT22;56302;52.322;5.926;2024-02-26T09:14:53;4.30;96.40
69189;DHT22;56302;52.322;5.926;2024-02-26T09:17:21;4.30;96.10
69189;DHT22;56302;52.322;5.926;2024-02-26T09:19:46;4.40;96.40
69189;DHT22;56302;52.322;5.926;2024-02-26T09:22:12;4.40;96.30
69189;DHT22;56302;52.322;5.926;2024-02-26T09:24:37;4.40;96.10
69189;DHT22;56302;52.322;5.926;2024-02-26T09:27:03;4.40;96.10
69189;DHT22;56302;52.322;5.926;2024-02-26T09:29:29;4.40;95.90
69189;DHT22;56302;52.322;5.926;2024-02-26T09:31:54;4.40;95.80
69189;DHT22;56302;52.322;5.926;2024-02-26T09:34:20;4.50;95.70
69189;DHT22;56302;52.322;5.926;2024-02-26T09:36:45;4.50;95.70
69189;DHT22;56302;52.322;5.926;2024-02-26T09:39:11;4.50;95.70
69189;DHT22;56302;52.322;5.926;2024-02-26T09:41:38;4.50;95.40
69189;DHT22;56302;52.322;5.926;2024-02-26T09:44:05;4.50;95.60
69189;DHT22;56302;52.322;5.926;2024-02-26T09:46:30;4.50;95.20
69189;DHT22;56302;52.322;5.926;2024-02-26T09:48:57;4.50;95.20
69189;DHT22;56302;52.322;5.926;2024-02-26T09:51:23;4.50;94.90
69189;DHT22;56302;52.322;5.926;2024-02-26T09:53:52;4.60;94.90
69189;DHT22;56302;52.322;5.926;2024-02-26T09:56:19;4.60;95.00
69189;DHT22;56302;52.322;5.926;2024-02-26T09:58:44;4.60;95.00
69189;DHT22;56302;52.322;5.926;2024-02-26T10:01:17;4.60;94.70
69189;DHT22;56302;52.322;5.926;2024-02-26T10:03:44;4.70;95.00
69189;DHT22;56302;52.322;5.926;2024-02-26T10:06:13;4.70;95.00
69189;DHT22;56302;52.322;5.926;2024-02-26T10:08:39;4.70;95.00
69189;DHT22;56302;52.322;5.926;2024-02-26T10:11:07;4.70;94.70
69189;DHT22;56302;52.322;5.926;2024-02-26T10:13:34;4.70;94.70
69189;DHT22;56302;52.322;5.926;2024-02-26T10:16:00;4.70;94.50
69189;DHT22;56302;52.322;5.926;2024-02-26T10:18:45;4.80;94.60
69189;DHT22;56302;52.322;5.926;2024-02-26T10:21:10;4.70;94.30
69189;DHT22;56302;52.322;5.926;2024-02-26T10:23:36;4.80;94.30
69189;DHT22;56302;52.322;5.926;2024-02-26T10:26:02;4.70;94.20
69189;DHT22;56302;52.322;5.926;2024-02-26T10:28:29;4.80;94.10
69189;DHT22;56302;52.322;5.926;2024-02-26T10:30:55;4.80;94.30
69189;DHT22;56302;52.322;5.926;2024-02-26T10:33:22;4.80;94.10
69189;DHT22;56302;52.322;5.926;2024-02-26T10:35:48;4.80;94.20
69189;DHT22;56302;52.322;5.926;2024-02-26T10:38:13;4.80;94.40
69189;DHT22;56302;52.322;5.926;2024-02-26T10:40:42;4.80;94.10
69189;DHT22;56302;52.322;5.926;2024-02-26T10:43:08;4.80;94.10
69189;DHT22;56302;52.322;5.926;2024-02-26T10:45:33;4.80;94.20
69189;DHT22;56302;52.322;5.926;2024-02-26T10:48:00;4.80;94.40
69189;DHT22;56302;52.322;5.926;2024-02-26T10:50:26;4.80;94.00
69189;DHT22;56302;52.322;5.926;2024-02-26T10:52:52;4.90;93.90
69189;DHT22;56302;52.322;5.926;2024-02-26T10:55:21;4.90;94.10
69189;DHT22;56302;52.322;5.926;2024-02-26T10:57:48;4.90;94.60
69189;DHT22;56302;52.322;5.926;2024-02-26T11:00:17;4.90;94.70
69189;DHT22;56302;52.322;5.926;2024-02-26T11:02:45;4.90;94.50
69189;DHT22;56302;52.322;5.926;2024-02-26T11:05:12;4.90;94.60
69189;DHT22;56302;52.322;5.926;2024-02-26T11:07:37;4.90;94.70
69189;DHT22;56302;52.322;5.926;2024-02-26T11:10:05;4.90;95.10
69189;DHT22;56302;52.322;5.926;2024-02-26T11:12:32;4.90;94.90
69189;DHT22;56302;52.322;5.926;2024-02-26T11:14:59;4.90;94.70
69189;DHT22;56302;52.322;5.926;2024-02-26T11:17:28;4.90;94.80
69189;DHT22;56302;52.322;5.926;2024-02-26T11:19:58;4.90;95.20
69189;DHT22;56302;52.322;5.926;2024-02-26T11:22:25;4.90;95.10
69189;DHT22;56302;52.322;5.926;2024-02-26T11:24:55;4.90;95.20
69189;DHT22;56302;52.322;5.926;2024-02-26T11:27:26;4.90;95.40
69189;DHT22;56302;52.322;5.926;2024-02-26T11:29:56;4.90;95.20
69189;DHT22;56302;52.322;5.926;2024-02-26T11:32:26;4.90;95.50
69189;DHT22;56302;52.322;5.926;2024-02-26T11:34:53;5.00;95.60
69189;DHT22;56302;52.322;5.926;2024-02-26T11:37:19;5.00;95.70
69189;DHT22;56302;52.322;5.926;2024-02-26T11:39:45;5.00;95.40
69189;DHT22;56302;52.322;5.926;2024-02-26T11:42:14;4.90;95.30
69189;DHT22;56302;52.322;5.926;2024-02-26T11:44:40;5.00;95.40
69189;DHT22;56302;52.322;5.926;2024-02-26T11:47:14;5.00;95.30
69189;DHT22;56302;52.322;5.926;2024-02-26T11:49:43;5.00;95.30
69189;DHT22;56302;52.322;5.926;2024-02-26T11:52:09;5.00;95.30
69189;DHT22;56302;52.322;5.926;2024-02-26T11:54:55;5.00;95.20
69189;DHT22;56302;52.322;5.926;2024-02-26T11:57:29;5.00;95.30
69189;DHT22;56302;52.322;5.926;2024-02-26T12:00:13;5.00;95.00
69189;DHT22;56302;52.322;5.926;2024-02-26T12:02:49;5.00;94.90
69189;DHT22;56302;52.322;5.926;2024-02-26T12:05:19;5.00;94.30
69189;DHT22;56302;52.322;5.926;2024-02-26T12:07:47;5.00;94.40
69189;DHT22;56302;52.322;5.926;2024-02-26T12:10:16;5.00;94.00
69189;DHT22;56302;52.322;5.926;2024-02-26T12:12:46;5.00;93.50
69189;DHT22;56302;52.322;5.926;2024-02-26T12:15:11;5.00;93.70
69189;DHT22;56302;52.322;5.926;2024-02-26T12:17:40;5.10;93.70
69189;DHT22;56302;52.322;5.926;2024-02-26T12:20:12;5.10;93.70
69189;DHT22;56302;52.322;5.926;2024-02-26T12:22:44;5.00;93.30
69189;DHT22;56302;52.322;5.926;2024-02-26T12:25:10;5.00;93.30
69189;DHT22;56302;52.322;5.926;2024-02-26T12:27:36;5.10;93.40
69189;DHT22;56302;52.322;5.926;2024-02-26T12:30:03;5.10;93.20
69189;DHT22;56302;52.322;5.926;2024-02-26T12:32:29;5.10;93.40
69189;DHT22;56302;52.322;5.926;2024-02-26T12:34:54;5.10;92.90
69189;DHT22;56302;52.322;5.926;2024-02-26T12:37:20;5.10;92.60
69189;DHT22;56302;52.322;5.926;2024-02-26T12:39:46;5.10;92.80
69189;DHT22;56302;52.322;5.926;2024-02-26T12:42:12;5.10;92.70
69189;DHT22;56302;52.322;5.926;2024-02-26T12:44:37;5.10;92.90
69189;DHT22;56302;52.322;5.926;2024-02-26T12:47:04;5.10;93.10
69189;DHT22;56302;52.322;5.926;2024-02-26T12:49:30;5.10;92.90
69189;DHT22;56302;52.322;5.926;2024-02-26T12:51:56;5.20;93.10
69189;DHT22;56302;52.322;5.926;2024-02-26T12:54:28;5.20;92.90
69189;DHT22;56302;52.322;5.926;2024-02-26T12:56:54;5.10;92.90
69189;DHT22;56302;52.322;5.926;2024-02-26T12:59:20;5.20;93.10
69189;DHT22;56302;52.322;5.926;2024-02-26T13:01:46;5.10;92.80
69189;DHT22;56302;52.322;5.926;2024-02-26T13:04:11;5.20;92.90
69189;DHT22;56302;52.322;5.926;2024-02-26T13:06:37;5.20;92.80
69189;DHT22;56302;52.322;5.926;2024-02-26T13:09:03;5.20;93.00
69189;DHT22;56302;52.322;5.926;2024-02-26T13:11:29;5.20;93.20
69189;DHT22;56302;52.322;5.926;2024-02-26T13:13:56;5.20;93.20
69189;DHT22;56302;52.322;5.926;2024-02-26T13:16:24;5.20;93.10
69189;DHT22;56302;52.322;5.926;2024-02-26T13:18:50;5.30;92.70
69189;DHT22;56302;52.322;5.926;2024-02-26T13:21:18;5.30;92.50
69189;DHT22;56302;52.322;5.926;2024-02-26T13:23:48;5.30;92.50
69189;DHT22;56302;52.322;5.926;2024-02-26T13:26:14;5.30;92.40
69189;DHT22;56302;52.322;5.926;2024-02-26T13:28:40;5.30;91.80
69189;DHT22;56302;52.322;5.926;2024-02-26T13:31:06;5.40;91.70
69189;DHT22;56302;52.322;5.926;2024-02-26T13:33:33;5.40;91.70
69189;DHT22;56302;52.322;5.926;2024-02-26T13:36:00;5.50;91.90
69189;DHT22;56302;52.322;5.926;2024-02-26T13:38:26;5.50;91.40
69189;DHT22;56302;52.322;5.926;2024-02-26T13:40:52;5.50;91.20
69189;DHT22;56302;52.322;5.926;2024-02-26T13:43:19;5.50;90.90
69189;DHT22;56302;52.322;5.926;2024-02-26T13:45:45;5.50;90.90
69189;DHT22;56302;52.322;5.926;2024-02-26T13:48:11;5.60;91.00
69189;DHT22;56302;52.322;5.926;2024-02-26T13:50:41;5.60;90.70
69189;DHT22;56302;52.322;5.926;2024-02-26T13:53:08;5.60;90.80
69189;DHT22;56302;52.322;5.926;2024-02-26T13:55:34;5.60;90.40
69189;DHT22;56302;52.322;5.926;2024-02-26T13:58:01;5.60;89.90
69189;DHT22;56302;52.322;5.926;2024-02-26T14:00:28;5.60;90.00
69189;DHT22;56302;52.322;5.926;2024-02-26T14:02:54;5.60;90.10
69189;DHT22;56302;52.322;5.926;2024-02-26T14:05:20;5.70;90.60
69189;DHT22;56302;52.322;5.926;2024-02-26T14:07:45;5.70;90.20
69189;DHT22;56302;52.322;5.926;2024-02-26T14:10:12;5.70;89.70
69189;DHT22;56302;52.322;5.926;2024-02-26T14:12:38;5.70;90.00
69189;DHT22;56302;52.322;5.926;2024-02-26T14:15:07;5.70;90.20
69189;DHT22;56302;52.322;5.926;2024-02-26T14:17:33;5.70;90.10
69189;DHT22;56302;52.322;5.926;2024-02-26T14:19:59;5.70;89.70
69189;DHT22;56302;52.322;5.926;2024-02-26T14:22:25;5.70;90.20
69189;DHT22;56302;52.322;5.926;2024-02-26T14:24:56;5.70;89.80
69189;DHT22;56302;52.322;5.926;2024-02-26T14:27:21;5.70;89.80
69189;DHT22;56302;52.322;5.926;2024-02-26T14:29:48;5.70;89.60
69189;DHT22;56302;52.322;5.926;2024-02-26T14:32:14;5.70;89.70
69189;DHT22;56302;52.322;5.926;2024-02-26T14:34:39;5.70;89.90
69189;DHT22;56302;52.322;5.926;2024-02-26T14:37:05;5.70;89.50
69189;DHT22;56302;52.322;5.926;2024-02-26T14:39:34;5.70;89.30
69189;DHT22;56302;52.322;5.926;2024-02-26T14:42:00;5.60;89.10
69189;DHT22;56302;52.322;5.926;2024-02-26T14:44:26;5.60;89.20
69189;DHT22;56302;52.322;5.926;2024-02-26T14:46:52;5.70;89.80
69189;DHT22;56302;52.322;5.926;2024-02-26T14:49:18;5.70;90.20
69189;DHT22;56302;52.322;5.926;2024-02-26T14:51:44;5.70;89.70
69189;DHT22;56302;52.322;5.926;2024-02-26T14:54:13;5.70;89.50
69189;DHT22;56302;52.322;5.926;2024-02-26T14:56:39;5.70;89.60
69189;DHT22;56302;52.322;5.926;2024-02-26T14:59:06;5.70;89.70
69189;DHT22;56302;52.322;5.926;2024-02-26T15:01:31;5.60;89.00
69189;DHT22;56302;52.322;5.926;2024-02-26T15:03:57;5.70;89.10
69189;DHT22;56302;52.322;5.926;2024-02-26T15:06:23;5.60;89.30
69189;DHT22;56302;52.322;5.926;2024-02-26T15:08:49;5.60;89.20
69189;DHT22;56302;52.322;5.926;2024-02-26T15:11:15;5.60;89.20
69189;DHT22;56302;52.322;5.926;2024-02-26T15:13:41;5.60;89.10
69189;DHT22;56302;52.322;5.926;2024-02-26T15:16:06;5.60;89.20
69189;DHT22;56302;52.322;5.926;2024-02-26T15:18:32;5.60;89.30
69189;DHT22;56302;52.322;5.926;2024-02-26T15:20:58;5.70;89.60
69189;DHT22;56302;52.322;5.926;2024-02-26T15:23:23;5.60;89.40
69189;DHT22;56302;52.322;5.926;2024-02-26T15:25:49;5.60;89.30
69189;DHT22;56302;52.322;5.926;2024-02-26T15:28:15;5.70;89.10
69189;DHT22;56302;52.322;5.926;2024-02-26T15:30:41;5.70;89.70
69189;DHT22;56302;52.322;5.926;2024-02-26T15:33:07;5.60;89.20
69189;DHT22;56302;52.322;5.926;2024-02-26T15:35:34;5.70;89.30
69189;DHT22;56302;52.322;5.926;2024-02-26T15:38:00;5.60;89.00
69189;DHT22;56302;52.322;5.926;2024-02-26T15:40:25;5.70;89.00